createdAt,value
2019-01-13T00:02:06.920Z,3.70
2019-01-13T00:04:36.655Z,3.60
2019-01-13T00:07:06.158Z,3.60
2019-01-13T00:09:35.455Z,3.60
2019-01-13T00:12:05.202Z,3.60
2019-01-13T00:14:34.676Z,3.60
2019-01-13T00:17:04.276Z,3.60
2019-01-13T00:19:33.598Z,3.60
2019-01-13T00:22:03.017Z,3.50
2019-01-13T00:24:32.376Z,3.60
2019-01-13T00:27:01.888Z,3.60
2019-01-13T00:29:31.541Z,3.60
2019-01-13T00:32:02.016Z,3.70
2019-01-13T00:34:33.331Z,3.70
2019-01-13T00:37:03.740Z,3.70
2019-01-13T00:39:33.089Z,3.80
2019-01-13T00:42:02.502Z,3.80
2019-01-13T00:44:31.760Z,3.80
2019-01-13T00:47:07.141Z,3.80
2019-01-13T00:49:36.461Z,3.80
2019-01-13T00:52:06.877Z,3.80
2019-01-13T00:54:39.263Z,3.80
2019-01-13T00:57:08.526Z,3.90
2019-01-13T00:59:37.909Z,3.80
2019-01-13T01:02:07.495Z,3.90
2019-01-13T01:04:37.925Z,3.90
2019-01-13T01:07:07.361Z,3.90
2019-01-13T01:09:36.918Z,3.90
2019-01-13T01:12:06.238Z,3.90
2019-01-13T01:14:35.695Z,3.90
2019-01-13T01:17:05.218Z,4.00
2019-01-13T01:19:34.662Z,4.00
2019-01-13T01:22:04.233Z,4.00
2019-01-13T01:24:33.978Z,4.00
2019-01-13T01:27:03.265Z,4.00
2019-01-13T01:29:32.670Z,4.00
2019-01-13T01:32:01.931Z,4.00
2019-01-13T01:34:32.422Z,4.00
2019-01-13T01:37:01.735Z,4.00
2019-01-13T01:39:31.027Z,4.00
2019-01-13T01:42:00.405Z,3.90
2019-01-13T01:44:29.715Z,3.90
2019-01-13T01:46:59.103Z,3.90
2019-01-13T01:49:28.421Z,3.80
2019-01-13T01:51:58.936Z,3.80
2019-01-13T01:54:30.331Z,3.80
2019-01-13T01:56:59.586Z,3.80
2019-01-13T01:59:29.006Z,3.70
2019-01-13T02:01:58.253Z,3.70
2019-01-13T02:04:27.731Z,3.70
2019-01-13T02:06:57.086Z,3.70
2019-01-13T02:09:26.426Z,3.70
2019-01-13T02:11:55.691Z,3.80
2019-01-13T02:14:25.113Z,3.80
2019-01-13T02:16:54.499Z,3.80
2019-01-13T02:19:25.992Z,3.80
2019-01-13T02:21:55.249Z,3.90
2019-01-13T02:24:24.617Z,3.90
2019-01-13T02:26:53.893Z,3.90
2019-01-13T02:29:25.329Z,3.90
2019-01-13T02:31:57.812Z,3.90
2019-01-13T02:34:27.100Z,3.80
2019-01-13T02:36:58.731Z,3.80
2019-01-13T02:39:28.188Z,3.70
2019-01-13T02:41:57.521Z,3.70
2019-01-13T02:44:26.990Z,3.60
2019-01-13T02:46:56.327Z,3.60
2019-01-13T02:49:25.828Z,3.50
2019-01-13T02:51:55.199Z,3.50
2019-01-13T02:54:24.621Z,3.50
2019-01-13T02:56:53.989Z,3.50
2019-01-13T02:59:25.598Z,3.40
2019-01-13T03:01:54.953Z,3.40
2019-01-13T03:04:26.366Z,3.50
2019-01-13T03:06:55.627Z,3.50
2019-01-13T03:09:25.007Z,3.50
2019-01-13T03:11:54.562Z,3.40
2019-01-13T03:14:24.039Z,3.40
2019-01-13T03:16:53.516Z,3.40
2019-01-13T03:19:22.837Z,3.40
2019-01-13T03:21:52.326Z,3.40
2019-01-13T03:24:21.592Z,3.40
2019-01-13T03:26:53.440Z,3.30
2019-01-13T03:29:22.803Z,3.30
2019-01-13T03:31:52.281Z,3.30
2019-01-13T03:34:21.602Z,3.30
2019-01-13T03:36:51.018Z,3.20
2019-01-13T03:39:20.301Z,3.20
2019-01-13T03:41:49.560Z,3.20
2019-01-13T03:44:22.144Z,3.10
2019-01-13T03:46:51.390Z,3.20
2019-01-13T03:49:20.915Z,3.20
2019-01-13T03:51:50.265Z,3.20
2019-01-13T03:54:19.700Z,3.10
2019-01-13T03:56:49.074Z,3.10
2019-01-13T03:59:18.476Z,3.10
2019-01-13T04:01:47.941Z,3.20
2019-01-13T04:04:17.280Z,3.20
2019-01-13T04:06:46.719Z,3.20
2019-01-13T04:09:15.942Z,3.20
2019-01-13T04:11:45.313Z,3.10
2019-01-13T04:14:14.649Z,3.10
2019-01-13T04:16:44.504Z,3.10
2019-01-13T04:19:13.823Z,3.20
2019-01-13T04:21:43.129Z,3.20
2019-01-13T04:24:15.736Z,3.20
2019-01-13T04:26:51.315Z,3.20
2019-01-13T04:29:20.702Z,3.20
2019-01-13T04:31:50.054Z,3.20
2019-01-13T04:34:20.589Z,3.20
2019-01-13T04:36:49.854Z,3.10
2019-01-13T04:39:19.333Z,3.20
2019-01-13T04:41:48.752Z,3.20
2019-01-13T04:44:18.205Z,3.20
2019-01-13T04:46:47.458Z,3.20
2019-01-13T04:49:16.933Z,3.20
2019-01-13T04:51:47.465Z,3.30
2019-01-13T04:54:16.801Z,3.30
2019-01-13T04:56:47.261Z,3.30
2019-01-13T04:59:16.597Z,3.20
2019-01-13T05:01:46.575Z,3.20
2019-01-13T05:04:15.828Z,3.20
2019-01-13T05:06:45.234Z,3.10
2019-01-13T05:09:14.584Z,3.10
2019-01-13T05:11:43.958Z,3.10
2019-01-13T05:14:13.256Z,3.10
2019-01-13T05:16:43.690Z,3.10
2019-01-13T05:19:13.005Z,3.10
2019-01-13T05:21:42.888Z,3.20
2019-01-13T05:24:12.221Z,3.20
2019-01-13T05:26:43.709Z,3.20
2019-01-13T05:29:13.044Z,3.30
2019-01-13T05:31:42.384Z,3.30
2019-01-13T05:34:11.813Z,3.30
2019-01-13T05:36:41.237Z,3.30
2019-01-13T05:39:10.553Z,3.30
2019-01-13T05:41:39.852Z,3.30
2019-01-13T05:44:09.272Z,3.30
2019-01-13T05:46:38.556Z,3.30
2019-01-13T05:49:07.923Z,3.20
2019-01-13T05:51:37.197Z,3.20
2019-01-13T05:54:06.628Z,3.10
2019-01-13T05:56:35.892Z,3.10
2019-01-13T05:59:06.338Z,3.10
2019-01-13T06:01:35.724Z,3.10
2019-01-13T06:04:06.104Z,3.10
2019-01-13T06:06:35.364Z,3.10
2019-01-13T06:09:08.167Z,3.10
2019-01-13T06:11:37.507Z,3.00
2019-01-13T06:14:06.964Z,3.00
2019-01-13T06:16:36.472Z,3.00
2019-01-13T06:19:05.943Z,3.00
2019-01-13T06:21:35.254Z,3.00
2019-01-13T06:24:04.833Z,2.90
2019-01-13T06:26:34.138Z,2.90
2019-01-13T06:29:06.705Z,2.90
2019-01-13T06:31:36.083Z,2.90
2019-01-13T06:34:06.517Z,2.90
2019-01-13T06:36:35.815Z,2.90
2019-01-13T06:39:08.164Z,2.90
2019-01-13T06:41:37.564Z,2.90
2019-01-13T06:44:06.938Z,2.80
2019-01-13T06:46:44.988Z,2.70
2019-01-13T06:49:14.472Z,2.70
2019-01-13T06:51:43.836Z,2.70
2019-01-13T06:54:13.197Z,2.60
2019-01-13T06:56:42.539Z,2.60
2019-01-13T06:59:12.023Z,2.60
2019-01-13T07:01:41.323Z,2.60
2019-01-13T07:04:11.216Z,2.60
2019-01-13T07:06:40.573Z,2.60
2019-01-13T07:09:10.003Z,2.60
2019-01-13T07:11:39.429Z,2.70
2019-01-13T07:14:08.915Z,2.70
2019-01-13T07:16:39.366Z,2.70
2019-01-13T07:19:08.639Z,2.70
2019-01-13T07:21:38.011Z,2.80
2019-01-13T07:24:07.607Z,2.80
2019-01-13T07:26:36.951Z,2.90
2019-01-13T07:29:06.253Z,2.90
2019-01-13T07:31:35.741Z,2.90
2019-01-13T07:34:05.169Z,3.00
2019-01-13T07:36:34.440Z,3.00
2019-01-13T07:39:05.357Z,3.00
2019-01-13T07:41:34.618Z,3.10
2019-01-13T07:44:03.915Z,3.10
2019-01-13T07:46:33.446Z,3.30
2019-01-13T07:49:02.732Z,3.40
2019-01-13T07:51:32.178Z,3.40
2019-01-13T07:54:01.682Z,3.60
2019-01-13T07:56:30.884Z,3.60
2019-01-13T07:59:00.237Z,3.70
2019-01-13T08:01:29.637Z,3.80
2019-01-13T08:03:58.997Z,3.80
2019-01-13T08:06:28.697Z,3.90
2019-01-13T08:09:05.674Z,3.90
2019-01-13T08:11:35.029Z,3.90
2019-01-13T08:14:04.888Z,3.80
2019-01-13T08:16:34.226Z,3.80
2019-01-13T08:19:04.725Z,3.80
2019-01-13T08:21:34.050Z,3.80
2019-01-13T08:24:09.658Z,3.80
2019-01-13T08:26:39.007Z,3.80
2019-01-13T08:29:10.116Z,3.80
2019-01-13T08:31:39.502Z,3.80
2019-01-13T08:34:08.906Z,3.90
2019-01-13T08:36:44.299Z,4.00
2019-01-13T08:39:13.623Z,4.10
2019-01-13T08:41:50.466Z,4.30
2019-01-13T08:44:19.713Z,4.40
2019-01-13T08:46:49.442Z,4.50
2019-01-13T08:49:18.717Z,4.60
2019-01-13T08:51:48.294Z,4.70
2019-01-13T08:54:17.648Z,4.70
2019-01-13T08:56:47.949Z,4.70
2019-01-13T08:59:18.297Z,4.80
2019-01-13T09:01:47.605Z,5.10
2019-01-13T09:04:18.037Z,5.20
2019-01-13T09:06:47.428Z,5.30
2019-01-13T09:09:18.826Z,5.40
2019-01-13T09:11:50.093Z,5.40
2019-01-13T09:14:19.364Z,5.30
2019-01-13T09:16:48.849Z,5.20
2019-01-13T09:19:18.245Z,5.20
2019-01-13T09:21:49.697Z,5.20
2019-01-13T09:24:20.056Z,5.30
2019-01-13T09:26:51.167Z,5.60
2019-01-13T09:29:21.767Z,6.20
2019-01-13T09:31:52.062Z,7.20
2019-01-13T09:34:21.438Z,8.30
2019-01-13T09:36:51.005Z,9.00
2019-01-13T09:39:20.419Z,9.60
2019-01-13T09:41:49.700Z,10.00
2019-01-13T09:44:19.043Z,10.60
2019-01-13T09:46:48.443Z,10.50
2019-01-13T09:49:17.827Z,10.90
2019-01-13T09:51:47.305Z,10.80
2019-01-13T09:54:17.504Z,11.10
2019-01-13T09:56:48.045Z,11.30
2019-01-13T09:59:17.349Z,10.60
2019-01-13T10:01:48.699Z,9.70
2019-01-13T10:04:20.048Z,9.10
2019-01-13T10:06:49.430Z,8.90
2019-01-13T10:09:18.809Z,9.60
2019-01-13T10:11:48.190Z,10.20
2019-01-13T10:14:17.514Z,10.30
2019-01-13T10:16:47.121Z,10.80
2019-01-13T10:19:17.371Z,10.90
2019-01-13T10:21:47.856Z,10.80
2019-01-13T10:24:17.387Z,10.10
2019-01-13T10:26:46.982Z,9.30
2019-01-13T10:29:17.539Z,9.20
2019-01-13T10:31:46.813Z,9.50
2019-01-13T10:34:17.360Z,9.70
2019-01-13T10:36:48.793Z,9.30
2019-01-13T10:39:18.445Z,8.80
2019-01-13T10:41:47.954Z,9.10
2019-01-13T10:44:17.521Z,8.90
2019-01-13T10:46:46.925Z,8.60
2019-01-13T10:49:16.202Z,8.30
2019-01-13T10:51:45.542Z,8.10
2019-01-13T10:54:15.745Z,7.90
2019-01-13T10:56:45.694Z,7.90
2019-01-13T10:59:15.121Z,8.60
2019-01-13T11:01:44.605Z,9.30
2019-01-13T11:04:14.194Z,9.30
2019-01-13T11:06:43.506Z,9.00
2019-01-13T11:09:14.281Z,8.50
2019-01-13T11:11:43.665Z,8.20
2019-01-13T11:14:14.134Z,8.20
2019-01-13T11:16:43.653Z,8.10
2019-01-13T11:19:14.094Z,8.10
2019-01-13T11:21:43.375Z,8.40
2019-01-13T11:24:12.825Z,8.70
2019-01-13T11:26:42.366Z,8.80
2019-01-13T11:29:12.330Z,8.80
2019-01-13T11:31:41.635Z,8.70
2019-01-13T11:34:11.097Z,8.50
2019-01-13T11:36:40.394Z,8.10
2019-01-13T11:39:12.925Z,7.80
2019-01-13T11:41:42.214Z,7.70
2019-01-13T11:44:11.469Z,7.60
2019-01-13T11:46:40.817Z,7.50
2019-01-13T11:49:10.317Z,7.40
2019-01-13T11:51:39.618Z,7.20
2019-01-13T11:54:08.968Z,7.20
2019-01-13T11:56:38.384Z,7.10
2019-01-13T11:59:07.749Z,7.00
2019-01-13T12:01:37.136Z,6.90
2019-01-13T12:04:06.900Z,6.90
2019-01-13T12:06:36.270Z,7.00
2019-01-13T12:09:08.758Z,7.00
2019-01-13T12:11:38.115Z,7.00
2019-01-13T12:14:08.143Z,7.10
2019-01-13T12:16:37.771Z,6.90
2019-01-13T12:19:07.212Z,6.80
2019-01-13T12:21:36.507Z,6.70
2019-01-13T12:24:05.943Z,6.80
2019-01-13T12:26:35.216Z,6.80
2019-01-13T12:29:04.751Z,6.80
2019-01-13T12:31:35.510Z,6.90
2019-01-13T12:34:05.947Z,6.70
2019-01-13T12:36:35.282Z,6.60
2019-01-13T12:39:09.399Z,6.60
2019-01-13T12:41:38.910Z,6.60
2019-01-13T12:44:08.259Z,6.60
2019-01-13T12:46:37.660Z,6.40
2019-01-13T12:49:09.136Z,6.40
2019-01-13T12:51:38.502Z,6.40
2019-01-13T12:54:07.960Z,6.30
2019-01-13T12:56:37.577Z,6.20
2019-01-13T12:59:07.037Z,6.20
2019-01-13T13:01:36.501Z,6.20
2019-01-13T13:04:05.853Z,6.10
2019-01-13T13:06:35.387Z,6.10
2019-01-13T13:09:08.841Z,6.10
2019-01-13T13:11:40.681Z,6.10
2019-01-13T13:14:10.000Z,6.20
2019-01-13T13:16:39.548Z,6.20
2019-01-13T13:19:08.921Z,6.20
2019-01-13T13:21:38.411Z,6.20
2019-01-13T13:24:10.083Z,6.20
2019-01-13T13:26:39.653Z,6.20
2019-01-13T13:29:08.982Z,6.10
2019-01-13T13:31:38.677Z,6.10
2019-01-13T13:34:09.960Z,6.10
2019-01-13T13:36:39.105Z,6.10
2019-01-13T13:39:13.294Z,6.10
2019-01-13T13:41:43.555Z,6.10
2019-01-13T13:44:16.406Z,6.20
2019-01-13T13:46:45.839Z,6.30
2019-01-13T13:49:15.281Z,6.40
2019-01-13T13:51:44.553Z,6.50
2019-01-13T13:54:15.443Z,6.50
2019-01-13T13:56:44.800Z,6.50
2019-01-13T13:59:14.298Z,6.60
2019-01-13T14:01:43.662Z,6.70
2019-01-13T14:04:13.096Z,6.70
2019-01-13T14:06:42.445Z,6.70
2019-01-13T14:09:11.939Z,6.70
2019-01-13T14:11:41.214Z,6.60
2019-01-13T14:14:10.724Z,6.60
2019-01-13T14:16:39.997Z,6.60
2019-01-13T14:19:09.597Z,6.60
2019-01-13T14:21:39.047Z,6.50
2019-01-13T14:24:09.106Z,6.50
2019-01-13T14:26:39.942Z,6.50
2019-01-13T14:29:09.342Z,6.40
2019-01-13T14:31:39.027Z,6.40
2019-01-13T14:34:09.393Z,6.30
2019-01-13T14:36:39.745Z,6.30
2019-01-13T14:39:09.446Z,6.30
2019-01-13T14:41:38.921Z,6.30
2019-01-13T14:44:08.254Z,6.20
2019-01-13T14:46:37.720Z,6.20
2019-01-13T14:49:07.037Z,6.20
2019-01-13T14:51:37.596Z,6.20
2019-01-13T14:54:07.745Z,6.20
2019-01-13T14:56:37.287Z,6.20
2019-01-13T14:59:07.219Z,6.20
2019-01-13T15:01:38.636Z,6.10
2019-01-13T15:04:07.985Z,6.10
2019-01-13T15:06:37.974Z,6.20
2019-01-13T15:09:09.907Z,6.10
2019-01-13T15:11:39.553Z,6.10
2019-01-13T15:14:09.253Z,6.10
2019-01-13T15:16:39.781Z,6.10
2019-01-13T15:19:09.264Z,6.10
2019-01-13T15:21:40.125Z,6.10
2019-01-13T15:24:09.607Z,6.10
2019-01-13T15:26:39.101Z,6.20
2019-01-13T15:29:09.628Z,6.20
2019-01-13T15:31:39.222Z,6.10
2019-01-13T15:34:17.035Z,6.20
2019-01-13T15:36:49.249Z,6.20
2019-01-13T15:39:21.936Z,6.20
2019-01-13T15:41:51.489Z,6.20
2019-01-13T15:44:22.089Z,6.30
2019-01-13T15:46:52.513Z,6.30
2019-01-13T15:49:30.291Z,6.30
2019-01-13T15:51:59.693Z,6.30
2019-01-13T15:54:29.268Z,6.30
2019-01-13T15:56:58.910Z,6.30
2019-01-13T15:59:28.521Z,6.30
2019-01-13T16:01:57.833Z,6.20
2019-01-13T16:04:34.466Z,6.20
2019-01-13T16:07:03.746Z,6.30
2019-01-13T16:09:35.729Z,6.30
2019-01-13T16:12:05.390Z,6.20
2019-01-13T16:14:34.959Z,6.20
2019-01-13T16:17:05.810Z,6.20
2019-01-13T16:19:36.320Z,6.10
2019-01-13T16:22:05.834Z,6.10
2019-01-13T16:24:35.365Z,6.10
2019-01-13T16:27:05.057Z,6.20
2019-01-13T16:29:36.906Z,6.10
2019-01-13T16:32:06.386Z,6.10
2019-01-13T16:34:38.029Z,6.10
2019-01-13T16:37:08.061Z,6.10
2019-01-13T16:39:37.757Z,6.10
2019-01-13T16:42:07.265Z,6.10
2019-01-13T16:44:38.826Z,6.10
2019-01-13T16:47:25.574Z,6.00
2019-01-13T16:49:56.735Z,6.10
2019-01-13T16:52:29.753Z,6.10
2019-01-13T16:54:59.080Z,6.10
2019-01-13T16:57:29.144Z,6.10
2019-01-13T16:59:58.634Z,6.10
2019-01-13T17:02:37.844Z,6.10
2019-01-13T17:05:09.115Z,6.10
2019-01-13T17:07:38.509Z,6.10
2019-01-13T17:10:10.577Z,6.20
2019-01-13T17:12:43.794Z,6.20
2019-01-13T17:15:15.734Z,6.20
2019-01-13T17:17:47.749Z,6.20
2019-01-13T17:20:19.842Z,6.20
2019-01-13T17:22:52.884Z,6.20
2019-01-13T17:25:34.738Z,6.20
2019-01-13T17:28:10.387Z,6.20
2019-01-13T17:30:40.015Z,6.20
2019-01-13T17:33:15.449Z,6.30
2019-01-13T17:35:44.930Z,6.20
2019-01-13T17:38:17.594Z,6.20
2019-01-13T17:40:47.072Z,6.00
2019-01-13T17:43:16.534Z,5.80
2019-01-13T17:45:46.818Z,5.70
2019-01-13T17:48:18.506Z,5.60
2019-01-13T17:50:49.476Z,5.50
2019-01-13T17:53:19.089Z,5.30
2019-01-13T17:55:48.601Z,5.30
2019-01-13T17:58:17.878Z,5.20
2019-01-13T18:00:53.921Z,5.10
2019-01-13T18:03:44.935Z,5.10
2019-01-13T18:06:15.391Z,5.10
2019-01-13T18:08:46.089Z,5.00
2019-01-13T18:11:15.669Z,4.90
2019-01-13T18:13:56.396Z,4.70
2019-01-13T18:16:32.108Z,4.60
2019-01-13T18:19:03.348Z,4.50
2019-01-13T18:21:34.491Z,4.50
2019-01-13T18:24:14.714Z,4.40
2019-01-13T18:26:44.489Z,4.40
2019-01-13T18:29:13.951Z,4.40
2019-01-13T18:31:45.455Z,4.40
2019-01-13T18:34:15.052Z,4.40
2019-01-13T18:36:48.087Z,4.40
2019-01-13T18:39:19.579Z,4.30
2019-01-13T18:41:51.931Z,4.30
2019-01-13T18:44:25.681Z,4.30
2019-01-13T18:46:56.423Z,4.30
2019-01-13T18:49:26.213Z,4.20
2019-01-13T18:51:56.735Z,4.20
2019-01-13T18:54:26.724Z,4.20
2019-01-13T18:56:56.701Z,4.20
2019-01-13T18:59:41.322Z,4.20
2019-01-13T19:02:13.003Z,4.10
2019-01-13T19:04:44.747Z,4.20
2019-01-13T19:07:14.426Z,4.10
2019-01-13T19:09:44.989Z,4.10
2019-01-13T19:12:14.684Z,4.20
2019-01-13T19:14:56.517Z,4.20
2019-01-13T19:17:28.214Z,4.20
2019-01-13T19:20:05.577Z,4.20
2019-01-13T19:22:38.852Z,4.20
2019-01-13T19:25:14.910Z,4.20
2019-01-13T19:27:45.674Z,4.10
2019-01-13T19:30:22.148Z,4.10
2019-01-13T19:32:54.174Z,4.10
2019-01-13T19:35:26.016Z,4.20
2019-01-13T19:37:57.130Z,4.20
2019-01-13T19:40:31.104Z,4.20
2019-01-13T19:43:01.546Z,4.20
2019-01-13T19:45:52.222Z,4.20
2019-01-13T19:48:24.655Z,4.30
2019-01-13T19:50:56.189Z,4.20
2019-01-13T19:53:30.802Z,4.30
2019-01-13T19:56:01.817Z,4.20
2019-01-13T19:58:39.687Z,4.30
2019-01-13T20:01:19.209Z,4.30
2019-01-13T20:03:53.096Z,4.30
2019-01-13T20:06:26.249Z,4.20
2019-01-13T20:09:00.726Z,4.20
2019-01-13T20:11:51.695Z,4.10
2019-01-13T20:14:22.558Z,4.20
2019-01-13T20:16:54.330Z,4.20
2019-01-13T20:19:28.372Z,4.10
2019-01-13T20:21:58.788Z,4.20
2019-01-13T20:24:29.006Z,4.10
2019-01-13T20:27:03.401Z,4.20
2019-01-13T20:29:33.340Z,4.20
2019-01-13T20:32:08.055Z,4.30
2019-01-13T20:34:43.476Z,4.40
2019-01-13T20:37:14.988Z,4.50
2019-01-13T20:40:06.067Z,4.50
2019-01-13T20:42:41.307Z,4.50
2019-01-13T20:45:37.135Z,4.50
2019-01-13T20:48:08.713Z,4.60
2019-01-13T20:50:43.839Z,4.60
2019-01-13T20:53:19.353Z,4.50
2019-01-13T20:55:53.106Z,4.60
2019-01-13T20:58:29.599Z,4.50
2019-01-13T21:01:06.033Z,4.60
2019-01-13T21:03:43.942Z,4.60
2019-01-13T21:06:18.266Z,4.60
2019-01-13T21:08:51.758Z,4.70
2019-01-13T21:11:29.888Z,4.70
2019-01-13T21:14:00.785Z,4.70
2019-01-13T21:16:39.610Z,4.80
2019-01-13T21:19:10.356Z,4.90
2019-01-13T21:21:51.782Z,4.90
2019-01-13T21:24:26.333Z,5.00
2019-01-13T21:26:59.222Z,5.10
2019-01-13T21:29:33.787Z,5.20
2019-01-13T21:32:05.901Z,5.20
2019-01-13T21:34:36.572Z,5.30
2019-01-13T21:37:07.184Z,5.30
2019-01-13T21:39:40.469Z,5.30
2019-01-13T21:42:12.724Z,5.30
2019-01-13T21:44:45.380Z,5.20
2019-01-13T21:47:23.057Z,5.30
2019-01-13T21:49:56.521Z,5.30
2019-01-13T21:52:30.120Z,5.30
2019-01-13T21:55:01.580Z,5.30
2019-01-13T21:57:37.591Z,5.30
2019-01-13T22:00:16.602Z,5.30
2019-01-13T22:02:48.510Z,5.40
2019-01-13T22:05:23.670Z,5.30
2019-01-13T22:07:57.099Z,5.30
2019-01-13T22:10:29.209Z,5.30
2019-01-13T22:13:00.085Z,5.30
2019-01-13T22:15:36.373Z,5.30
2019-01-13T22:18:09.510Z,5.30
2019-01-13T22:20:41.231Z,5.30
2019-01-13T22:23:14.554Z,5.30
2019-01-13T22:25:49.050Z,5.30
2019-01-13T22:28:26.645Z,5.40
2019-01-13T22:30:59.798Z,5.40
2019-01-13T22:33:33.469Z,5.40
2019-01-13T22:36:06.143Z,5.40
2019-01-13T22:38:36.652Z,5.50
2019-01-13T22:41:11.683Z,5.50
2019-01-13T22:43:41.073Z,5.50
2019-01-13T22:46:11.206Z,5.50
2019-01-13T22:48:48.235Z,5.50
2019-01-13T22:51:20.826Z,5.60
2019-01-13T22:53:50.085Z,5.60
2019-01-13T22:56:19.619Z,5.60
2019-01-13T22:58:49.104Z,5.60
2019-01-13T23:01:33.406Z,5.60
2019-01-13T23:04:08.486Z,5.60
2019-01-13T23:06:37.837Z,5.70
2019-01-13T23:09:11.080Z,5.70
2019-01-13T23:11:41.773Z,5.70
2019-01-13T23:14:12.723Z,5.60
2019-01-13T23:16:42.627Z,5.60
2019-01-13T23:19:12.348Z,5.70
2019-01-13T23:21:41.849Z,5.70
2019-01-13T23:24:11.109Z,5.80
2019-01-13T23:26:40.597Z,5.80
2019-01-13T23:29:10.275Z,5.90
2019-01-13T23:31:39.777Z,5.90
2019-01-13T23:34:09.364Z,5.90
2019-01-13T23:36:38.653Z,5.90
2019-01-13T23:39:09.044Z,5.90
2019-01-13T23:41:38.448Z,5.90
2019-01-13T23:44:07.892Z,5.90
2019-01-13T23:46:37.324Z,5.90
2019-01-13T23:49:06.872Z,5.90
2019-01-13T23:51:36.415Z,5.90
2019-01-13T23:54:05.871Z,5.90
2019-01-13T23:56:35.588Z,6.00
2019-01-13T23:59:05.069Z,6.00
